Time;durP1;ratioP1;P1;durP2;ratioP2;P2;SDS_P1;SDS_P2;PMS_P1;PMS_P2;Temp;Humidity;BMP_temperature;BMP_pressure;BME280_temperature;BME280_humidity;BME280_pressure;Samples;Min_cycle;Max_cycle;Signal;HPM_P1;HPM_P2
2023/07/07 00:01:07;;;;;;;5.17;3.83;;;12.60;84.00;;;;;;4999119;28;20299;-70
2023/07/07 00:03:34;;;;;;;7.57;3.43;;;12.50;84.10;;;;;;5012574;28;20125;-70
2023/07/07 00:06:00;;;;;;;5.53;3.50;;;12.50;84.30;;;;;;4997064;28;20296;-70
2023/07/07 00:08:26;;;;;;;7.30;3.80;;;12.40;83.90;;;;;;4991638;28;20556;-70
2023/07/07 00:10:53;;;;;;;8.20;3.90;;;12.40;83.80;;;;;;5010519;28;20281;-70
2023/07/07 00:13:20;;;;;;;8.77;3.93;;;12.40;84.00;;;;;;5014647;28;20284;-70
2023/07/07 00:15:46;;;;;;;5.60;3.67;;;12.40;84.10;;;;;;4993575;28;20320;-70
2023/07/07 00:18:26;;;;;;;8.80;3.80;;;12.40;84.00;;;;;;5013520;28;20309;-70
2023/07/07 00:20:57;;;;;;;7.17;4.17;;;12.40;83.90;;;;;;4995073;28;20320;-70
2023/07/07 00:23:24;;;;;;;7.90;3.60;;;12.40;84.40;;;;;;5009082;28;20664;-70
2023/07/07 00:26:04;;;;;;;4.40;3.40;;;12.40;84.30;;;;;;4994279;28;20295;-70
2023/07/07 00:28:30;;;;;;;6.27;3.73;;;12.40;83.90;;;;;;5013494;28;20309;-70
2023/07/07 00:30:56;;;;;;;7.43;3.70;;;12.30;84.30;;;;;;4998864;28;20292;-70
2023/07/07 00:33:23;;;;;;;6.37;3.70;;;12.20;83.90;;;;;;5004671;28;20285;-70
2023/07/07 00:35:49;;;;;;;6.83;3.53;;;12.20;83.90;;;;;;4996531;28;20686;-70
2023/07/07 00:38:15;;;;;;;6.80;3.57;;;12.20;84.00;;;;;;5011331;28;20304;-70
2023/07/07 00:40:41;;;;;;;5.63;3.40;;;12.20;84.00;;;;;;4998568;28;20451;-70
2023/07/07 00:43:18;;;;;;;7.53;3.33;;;12.20;83.80;;;;;;4998780;28;20292;-70
2023/07/07 00:45:45;;;;;;;6.90;3.60;;;12.20;83.70;;;;;;4990813;28;20288;-70
2023/07/07 00:48:14;;;;;;;6.27;3.97;;;12.30;83.60;;;;;;5005785;28;20311;-70
2023/07/07 00:50:51;;;;;;;6.23;4.20;;;12.30;83.60;;;;;;4998744;28;20644;-70
2023/07/07 00:53:18;;;;;;;7.27;3.60;;;12.20;83.30;;;;;;5011383;28;20688;-70
2023/07/07 00:55:48;;;;;;;8.17;4.87;;;12.20;83.30;;;;;;5014460;28;20319;-70
2023/07/07 00:58:17;;;;;;;5.97;4.50;;;12.10;83.40;;;;;;5012346;28;21127;-70
2023/07/07 01:00:49;;;;;;;6.53;4.50;;;12.10;83.50;;;;;;5011537;28;20614;-70
2023/07/07 01:03:24;;;;;;;6.70;4.77;;;12.10;84.00;;;;;;4994206;28;20323;-70
2023/07/07 01:05:54;;;;;;;7.70;5.23;;;12.10;83.80;;;;;;4991170;28;20828;-70
2023/07/07 01:08:20;;;;;;;7.57;5.43;;;12.10;83.80;;;;;;5013450;28;20301;-70
2023/07/07 01:10:46;;;;;;;5.93;4.97;;;12.10;84.10;;;;;;5010184;28;20293;-70
2023/07/07 01:13:12;;;;;;;6.87;4.47;;;12.00;84.10;;;;;;5013975;28;20277;-70
2023/07/07 01:16:02;;;;;;;7.40;5.35;;;12.00;84.10;;;;;;5014356;28;20049;-70
2023/07/07 01:18:38;;;;;;;7.40;4.97;;;12.00;84.40;;;;;;5012574;28;20049;-70
2023/07/07 01:21:37;;;;;;;8.80;5.13;;;12.00;84.60;;;;;;5013199;28;20629;-70
2023/07/07 01:24:20;;;;;;;9.93;5.27;;;11.90;84.40;;;;;;5011944;28;20371;-70
2023/07/07 01:27:26;;;;;;;6.40;5.05;;;11.90;84.80;;;;;;5014204;28;20308;-70
2023/07/07 01:30:02;;;;;;;6.23;4.97;;;11.80;85.10;;;;;;4997694;28;20481;-70
2023/07/07 01:32:34;;;;;;;7.23;4.63;;;11.80;85.20;;;;;;4996953;28;20284;-70
2023/07/07 01:35:07;;;;;;;10.73;5.40;;;11.80;85.40;;;;;;4993946;28;20289;-70
2023/07/07 01:37:33;;;;;;;6.60;4.50;;;11.80;85.90;;;;;;4994824;28;20880;-70
2023/07/07 01:40:00;;;;;;;7.77;4.57;;;11.70;85.70;;;;;;5013413;28;20328;-70
2023/07/07 01:42:33;;;;;;;6.67;4.60;;;11.70;85.90;;;;;;5014050;28;20107;-70
2023/07/07 01:45:14;;;;;;;8.77;4.37;;;11.70;86.70;;;;;;5012963;28;20660;-70
2023/07/07 01:47:46;;;;;;;6.50;4.87;;;11.70;86.50;;;;;;5013516;28;20392;-70
2023/07/07 01:50:18;;;;;;;6.18;4.68;;;11.70;86.50;;;;;;5013427;28;20281;-70
2023/07/07 01:52:52;;;;;;;8.02;4.63;;;11.60;86.70;;;;;;4994863;28;20113;-70
2023/07/07 01:55:28;;;;;;;7.55;4.25;;;11.60;87.30;;;;;;5013640;28;20125;-70
2023/07/07 01:57:58;;;;;;;8.48;5.07;;;11.60;87.60;;;;;;4997455;28;20041;-70
2023/07/07 02:00:24;;;;;;;6.45;4.40;;;11.60;87.60;;;;;;5009363;28;20498;-70
2023/07/07 02:02:51;;;;;;;6.57;4.60;;;11.50;87.90;;;;;;5013151;28;20046;-70
2023/07/07 02:05:17;;;;;;;7.32;4.50;;;11.50;87.70;;;;;;5005656;28;20188;-70
2023/07/07 02:07:43;;;;;;;9.93;4.47;;;11.50;88.20;;;;;;4997080;28;20077;-70
2023/07/07 02:10:10;;;;;;;6.37;4.03;;;11.50;88.50;;;;;;5013013;28;20367;-70
2023/07/07 02:12:35;;;;;;;8.20;4.22;;;11.40;88.50;;;;;;5008859;28;20112;-70
2023/07/07 02:15:01;;;;;;;9.03;4.17;;;11.40;88.90;;;;;;4988773;28;20042;-70
2023/07/07 02:17:28;;;;;;;8.57;4.20;;;11.40;88.90;;;;;;4991363;28;20065;-70
2023/07/07 02:19:55;;;;;;;5.75;3.97;;;11.40;88.80;;;;;;4996810;28;20057;-70
2023/07/07 02:22:21;;;;;;;6.45;3.97;;;11.40;88.70;;;;;;4987359;28;20141;-70
2023/07/07 02:24:47;;;;;;;6.20;4.20;;;11.30;88.70;;;;;;4995148;28;20073;-70
2023/07/07 02:27:12;;;;;;;7.40;4.20;;;11.30;89.00;;;;;;4994745;28;20052;-70
2023/07/07 02:29:38;;;;;;;7.13;4.10;;;11.30;88.80;;;;;;5009359;28;20042;-70
2023/07/07 02:32:06;;;;;;;9.90;4.20;;;11.30;89.00;;;;;;5011433;28;20375;-70
2023/07/07 02:34:32;;;;;;;5.85;4.05;;;11.30;89.40;;;;;;4980289;28;20042;-70
2023/07/07 02:36:58;;;;;;;7.57;5.20;;;11.30;89.20;;;;;;4990966;28;20414;-70
2023/07/07 02:39:25;;;;;;;8.32;4.95;;;11.30;89.10;;;;;;4995859;28;20372;-70
2023/07/07 02:41:51;;;;;;;7.63;4.53;;;11.30;89.10;;;;;;5009937;28;20069;-70
2023/07/07 02:44:17;;;;;;;10.00;5.00;;;11.30;89.00;;;;;;5007403;28;20041;-70
2023/07/07 02:46:44;;;;;;;6.43;4.83;;;11.30;89.00;;;;;;5011716;28;20045;-70
2023/07/07 02:49:10;;;;;;;8.27;5.20;;;11.40;89.50;;;;;;5012568;28;20126;-70
2023/07/07 02:51:36;;;;;;;8.88;5.53;;;11.40;89.30;;;;;;5010400;28;20497;-70
2023/07/07 02:54:01;;;;;;;11.73;5.53;;;11.50;89.20;;;;;;5012659;28;20077;-70
2023/07/07 02:56:27;;;;;;;10.00;6.00;;;11.50;89.30;;;;;;4995426;28;20061;-70
2023/07/07 02:58:53;;;;;;;11.60;6.67;;;11.60;89.30;;;;;;5004565;28;20045;-70
2023/07/07 03:01:23;;;;;;;11.00;6.93;;;11.60;89.40;;;;;;5012820;28;20513;-70
2023/07/07 03:03:51;;;;;;;12.68;7.45;;;11.70;89.60;;;;;;4991888;28;20041;-70
2023/07/07 03:06:20;;;;;;;10.02;7.25;;;11.70;89.40;;;;;;4992209;28;20483;-70
2023/07/07 03:08:46;;;;;;;10.70;7.93;;;11.70;89.70;;;;;;5012988;28;20460;-70
2023/07/07 03:11:16;;;;;;;12.80;8.50;;;11.70;89.60;;;;;;5006829;28;20045;-70
2023/07/07 03:13:44;;;;;;;11.32;7.55;;;11.80;89.80;;;;;;4989546;28;20038;-70
2023/07/07 03:16:23;;;;;;;15.45;8.50;;;11.80;89.80;;;;;;5011345;28;20096;-70
2023/07/07 03:18:55;;;;;;;11.38;7.93;;;11.80;90.00;;;;;;5008650;28;20842;-70
2023/07/07 03:21:22;;;;;;;14.90;9.10;;;11.80;90.30;;;;;;4989982;28;20412;-70
2023/07/07 03:23:54;;;;;;;12.10;8.90;;;11.80;90.60;;;;;;5007714;28;20042;-70
2023/07/07 03:26:21;;;;;;;15.07;8.90;;;11.80;90.90;;;;;;4996015;28;20037;-70
2023/07/07 03:28:47;;;;;;;18.45;9.40;;;11.80;91.00;;;;;;4995381;28;20528;-70
2023/07/07 03:31:33;;;;;;;16.63;9.93;;;11.80;90.90;;;;;;4995027;28;20505;-70
2023/07/07 03:34:02;;;;;;;15.60;10.60;;;11.90;91.30;;;;;;4996931;28;20058;-70
2023/07/07 03:36:31;;;;;;;16.13;9.15;;;11.90;91.40;;;;;;4998346;28;20168;-70
2023/07/07 03:38:57;;;;;;;14.18;9.95;;;11.90;91.60;;;;;;4998916;28;20045;-70
2023/07/07 03:41:25;;;;;;;16.13;10.00;;;11.90;91.50;;;;;;4997121;28;20046;-70
2023/07/07 03:43:53;;;;;;;15.27;10.23;;;11.90;91.40;;;;;;5002220;28;20038;-70
2023/07/07 03:46:24;;;;;;;13.30;10.25;;;12.00;91.60;;;;;;5012312;28;20274;-70
2023/07/07 03:48:53;;;;;;;16.02;10.48;;;12.00;91.60;;;;;;5003807;28;20133;-70
2023/07/07 03:51:20;;;;;;;13.30;10.87;;;12.00;91.90;;;;;;4999252;28;20034;-70
2023/07/07 03:53:46;;;;;;;14.60;10.80;;;12.00;91.80;;;;;;4998373;28;20273;-70
2023/07/07 03:56:13;;;;;;;17.03;11.20;;;12.10;91.90;;;;;;5014736;28;20665;-70
2023/07/07 03:58:39;;;;;;;16.30;11.37;;;12.10;92.00;;;;;;4998880;28;20320;-70
2023/07/07 04:01:09;;;;;;;15.70;11.03;;;12.10;92.40;;;;;;5015564;28;20293;-70
2023/07/07 04:03:35;;;;;;;16.00;11.03;;;12.10;92.40;;;;;;4997154;28;20077;-70
2023/07/07 04:06:02;;;;;;;16.90;12.00;;;12.20;92.40;;;;;;4992237;28;20364;-70
2023/07/07 04:08:28;;;;;;;17.17;11.13;;;12.20;92.50;;;;;;4999546;28;20312;-70
2023/07/07 04:11:19;;;;;;;15.27;12.07;;;12.20;92.40;;;;;;5011069;28;20312;-69
2023/07/07 04:13:46;;;;;;;18.87;11.87;;;12.20;92.30;;;;;;5011079;28;20342;-69
2023/07/07 04:16:14;;;;;;;16.17;12.40;;;12.30;92.90;;;;;;5012812;28;20293;-69
2023/07/07 04:18:41;;;;;;;15.30;11.70;;;12.30;92.70;;;;;;5019280;28;20304;-69
2023/07/07 04:21:10;;;;;;;16.27;12.27;;;12.30;92.60;;;;;;4997570;28;20276;-69
2023/07/07 04:23:37;;;;;;;16.77;11.77;;;12.40;92.60;;;;;;5014667;28;20395;-69
2023/07/07 04:26:04;;;;;;;14.80;12.17;;;12.50;92.90;;;;;;4986575;28;20297;-68
2023/07/07 04:28:31;;;;;;;16.83;12.93;;;12.50;93.00;;;;;;4987246;28;20313;-68
2023/07/07 04:30:58;;;;;;;20.23;13.37;;;12.50;93.10;;;;;;5010022;28;20296;-68
2023/07/07 04:33:26;;;;;;;21.40;13.20;;;12.60;93.10;;;;;;4999215;28;20355;-69
2023/07/07 04:36:00;;;;;;;17.40;12.73;;;12.60;93.10;;;;;;4997548;28;20380;-69
2023/07/07 04:38:32;;;;;;;17.13;13.17;;;12.70;93.20;;;;;;4999443;28;20347;-69
2023/07/07 04:41:14;;;;;;;21.80;14.50;;;12.80;93.40;;;;;;5013997;28;20680;-69
2023/07/07 04:43:43;;;;;;;20.87;13.50;;;13.20;94.40;;;;;;4992713;28;20295;-69
2023/07/07 04:46:12;;;;;;;19.63;13.97;;;13.60;93.60;;;;;;4997752;28;20283;-69
2023/07/07 04:48:39;;;;;;;19.63;13.57;;;14.00;92.90;;;;;;4998287;28;20539;-69
2023/07/07 04:51:07;;;;;;;16.77;13.57;;;14.50;91.80;;;;;;4994964;28;20292;-69
2023/07/07 04:53:34;;;;;;;16.63;13.40;;;15.00;90.40;;;;;;4997855;28;20276;-69
2023/07/07 04:56:02;;;;;;;16.83;12.90;;;15.50;89.40;;;;;;4998145;28;20311;-69
2023/07/07 04:58:28;;;;;;;15.43;12.77;;;16.30;87.80;;;;;;5012762;28;20289;-69
2023/07/07 05:01:15;;;;;;;16.13;12.93;;;17.20;84.30;;;;;;4992329;28;20301;-69
2023/07/07 05:03:42;;;;;;;17.23;12.50;;;17.90;80.50;;;;;;5009509;28;20296;-70
2023/07/07 05:06:09;;;;;;;15.30;12.50;;;18.30;79.30;;;;;;5012606;28;20761;-70
2023/07/07 05:08:41;;;;;;;14.73;12.13;;;18.90;78.40;;;;;;4995897;28;20301;-70
2023/07/07 05:11:10;;;;;;;16.80;12.67;;;19.50;76.40;;;;;;4993801;28;20331;-70
2023/07/07 05:13:36;;;;;;;16.40;12.27;;;20.20;73.90;;;;;;5009680;28;20288;-70
2023/07/07 05:16:10;;;;;;;14.70;11.90;;;20.70;72.00;;;;;;5008304;28;20350;-70
2023/07/07 05:18:36;;;;;;;15.35;10.68;;;21.00;69.90;;;;;;4998502;28;20045;-70
2023/07/07 05:21:03;;;;;;;14.33;10.50;;;21.40;68.70;;;;;;4997613;28;20466;-70
2023/07/07 05:23:29;;;;;;;18.57;11.57;;;21.80;66.90;;;;;;4997536;28;20368;-70
2023/07/07 05:25:55;;;;;;;16.20;11.63;;;22.00;65.20;;;;;;4990976;28;20316;-70
2023/07/07 05:28:21;;;;;;;13.53;10.23;;;22.30;64.60;;;;;;5012539;28;20045;-70
2023/07/07 05:30:46;;;;;;;13.90;10.80;;;22.50;63.90;;;;;;4984398;28;20049;-70
2023/07/07 05:33:13;;;;;;;14.37;9.60;;;22.30;63.10;;;;;;4999138;28;20297;-70
2023/07/07 05:36:01;;;;;;;13.20;10.60;;;22.30;64.10;;;;;;4996286;28;20057;-70
2023/07/07 05:38:27;;;;;;;14.53;10.67;;;22.40;62.90;;;;;;4990575;28;20042;-70
2023/07/07 05:40:54;;;;;;;14.70;10.50;;;22.60;63.30;;;;;;4996464;28;20461;-70
2023/07/07 05:43:22;;;;;;;15.50;9.90;;;23.00;62.20;;;;;;5009646;28;20058;-70
2023/07/07 05:45:53;;;;;;;13.17;9.70;;;23.50;60.90;;;;;;4997839;28;20521;-70
2023/07/07 05:48:18;;;;;;;15.93;10.60;;;23.90;59.30;;;;;;5009730;28;20057;-70
2023/07/07 05:50:45;;;;;;;11.33;8.17;;;24.20;58.30;;;;;;4996026;28;20110;-70
2023/07/07 05:53:11;;;;;;;12.50;8.90;;;24.40;57.70;;;;;;5013515;28;20139;-70
2023/07/07 05:55:37;;;;;;;10.93;8.27;;;24.80;57.30;;;;;;5005696;28;20034;-70
2023/07/07 05:58:04;;;;;;;11.10;8.30;;;24.80;55.80;;;;;;4992219;28;20490;-70
2023/07/07 06:00:32;;;;;;;11.73;8.40;;;24.70;54.60;;;;;;4984475;28;20050;-70
2023/07/07 06:03:01;;;;;;;10.37;7.87;;;24.60;54.60;;;;;;4989661;28;20462;-71
2023/07/07 06:05:27;;;;;;;9.73;8.17;;;24.30;54.80;;;;;;4991803;28;20042;-71
2023/07/07 06:07:54;;;;;;;11.30;7.83;;;24.00;55.60;;;;;;5008064;28;20042;-71
2023/07/07 06:10:22;;;;;;;11.10;8.20;;;23.90;55.40;;;;;;5006704;28;20042;-71
2023/07/07 06:12:48;;;;;;;11.00;7.30;;;23.90;55.60;;;;;;5008372;28;20049;-71
2023/07/07 06:15:13;;;;;;;11.37;7.10;;;24.00;55.60;;;;;;4991518;28;20314;-71
2023/07/07 06:17:40;;;;;;;10.07;7.23;;;24.00;55.50;;;;;;5004269;28;20033;-71
2023/07/07 06:20:06;;;;;;;8.87;7.27;;;24.10;55.80;;;;;;5006073;28;20046;-71
2023/07/07 06:22:31;;;;;;;12.73;8.07;;;24.50;55.40;;;;;;4975825;28;20124;-71
2023/07/07 06:24:58;;;;;;;9.23;7.23;;;24.80;54.70;;;;;;4986947;28;20049;-71
2023/07/07 06:27:23;;;;;;;10.27;7.20;;;24.80;54.00;;;;;;4988972;28;20482;-71
2023/07/07 06:29:49;;;;;;;8.03;7.20;;;24.40;54.80;;;;;;5004365;28;20069;-71
2023/07/07 06:32:15;;;;;;;12.43;7.23;;;24.20;55.50;;;;;;4992015;28;20038;-71
2023/07/07 06:34:41;;;;;;;10.30;7.63;;;24.40;55.50;;;;;;5006699;28;20034;-71
2023/07/07 06:37:06;;;;;;;10.20;6.67;;;24.80;54.70;;;;;;4985551;28;20038;-71
2023/07/07 06:39:32;;;;;;;11.40;7.90;;;25.00;53.60;;;;;;5006988;28;20104;-71
2023/07/07 06:42:00;;;;;;;10.47;6.80;;;25.00;53.20;;;;;;5007441;28;20132;-71
2023/07/07 06:44:26;;;;;;;10.43;6.70;;;25.20;53.30;;;;;;4983523;28;20419;-70
2023/07/07 06:46:52;;;;;;;10.17;6.87;;;25.10;53.30;;;;;;4991201;28;20152;-70
2023/07/07 06:49:18;;;;;;;10.70;6.87;;;25.00;53.30;;;;;;4990815;28;20061;-71
2023/07/07 06:51:44;;;;;;;9.17;6.47;;;25.00;53.30;;;;;;5007233;28;20046;-72
2023/07/07 06:54:10;;;;;;;13.07;7.37;;;25.00;53.70;;;;;;5009329;28;20033;-72
2023/07/07 06:56:36;;;;;;;7.93;6.37;;;24.90;53.90;;;;;;5009885;28;20073;-72
2023/07/07 06:59:03;;;;;;;12.20;5.83;;;24.90;54.30;;;;;;5004330;28;20418;-72
2023/07/07 07:01:29;;;;;;;10.67;6.23;;;24.80;54.80;;;;;;5004163;28;20046;-72
2023/07/07 07:03:55;;;;;;;8.67;5.77;;;24.70;55.00;;;;;;5009839;28;20037;-73
2023/07/07 07:06:21;;;;;;;8.23;5.57;;;24.50;55.20;;;;;;4993066;28;20037;-72
2023/07/07 07:08:46;;;;;;;7.50;5.73;;;24.30;55.70;;;;;;5009301;28;20038;-72
2023/07/07 07:11:14;;;;;;;6.73;5.37;;;24.10;56.00;;;;;;5009789;28;20034;-72
2023/07/07 07:13:40;;;;;;;10.13;5.40;;;23.70;56.60;;;;;;5001595;28;20030;-73
2023/07/07 07:16:06;;;;;;;7.60;4.90;;;23.40;57.00;;;;;;5002462;28;20065;-73
2023/07/07 07:18:31;;;;;;;7.47;5.13;;;23.20;58.30;;;;;;4996201;28;20037;-73
2023/07/07 07:20:57;;;;;;;9.47;5.10;;;23.00;59.10;;;;;;5009523;28;20045;-73
2023/07/07 07:23:23;;;;;;;9.27;5.03;;;22.70;59.40;;;;;;4999834;28;20527;-73
2023/07/07 07:25:49;;;;;;;7.77;4.83;;;22.50;60.10;;;;;;4998863;28;20115;-72
2023/07/07 07:28:15;;;;;;;6.67;3.80;;;22.40;61.10;;;;;;4986486;28;20351;-73
2023/07/07 07:30:41;;;;;;;7.27;4.03;;;22.30;61.50;;;;;;5003963;28;20393;-72
2023/07/07 07:33:12;;;;;;;5.80;4.23;;;22.20;61.80;;;;;;4992170;28;20041;-73
2023/07/07 07:35:37;;;;;;;7.00;4.00;;;22.10;61.20;;;;;;4989188;28;20077;-72
2023/07/07 07:38:04;;;;;;;7.67;4.37;;;22.10;61.60;;;;;;4985163;28;20049;-71
2023/07/07 07:40:30;;;;;;;6.97;3.63;;;22.20;60.90;;;;;;4982196;28;20062;-72
2023/07/07 07:42:56;;;;;;;6.83;3.60;;;22.20;60.60;;;;;;5005642;28;20061;-73
2023/07/07 07:45:23;;;;;;;7.23;2.90;;;22.20;60.40;;;;;;4983733;28;20395;-72
2023/07/07 07:47:51;;;;;;;7.80;3.40;;;22.30;60.70;;;;;;5004401;28;20414;-72
2023/07/07 07:50:18;;;;;;;8.03;3.37;;;22.40;61.20;;;;;;5000820;28;20399;-72
2023/07/07 07:52:44;;;;;;;5.47;3.30;;;22.50;59.70;;;;;;5002178;28;20050;-72
2023/07/07 07:55:11;;;;;;;5.67;2.80;;;22.50;59.20;;;;;;4997147;28;20057;-72
2023/07/07 07:57:37;;;;;;;4.60;2.90;;;22.60;59.40;;;;;;4994592;28;20054;-72
2023/07/07 08:00:04;;;;;;;5.63;2.73;;;22.60;59.70;;;;;;4985524;28;20114;-72
2023/07/07 08:02:30;;;;;;;5.77;3.20;;;22.70;59.20;;;;;;5004793;28;20042;-72
2023/07/07 08:04:56;;;;;;;5.53;2.80;;;22.70;58.60;;;;;;4997184;28;20042;-71
2023/07/07 08:07:22;;;;;;;7.17;2.57;;;22.80;59.00;;;;;;4986201;28;20079;-73
2023/07/07 08:09:47;;;;;;;6.50;3.10;;;23.00;59.80;;;;;;4985525;28;20046;-73
2023/07/07 08:12:14;;;;;;;5.53;2.50;;;23.10;58.50;;;;;;4994721;28;20502;-72
2023/07/07 08:14:40;;;;;;;7.37;2.63;;;23.10;58.70;;;;;;4998673;28;20109;-72
2023/07/07 08:17:08;;;;;;;6.10;2.80;;;23.20;58.30;;;;;;5002453;28;20124;-72
2023/07/07 08:19:36;;;;;;;6.03;2.10;;;23.30;57.40;;;;;;5000034;28;20046;-72
2023/07/07 08:22:05;;;;;;;5.60;2.83;;;23.40;57.20;;;;;;5009343;28;20540;-72
2023/07/07 08:24:37;;;;;;;4.23;2.60;;;23.40;56.70;;;;;;4993601;28;20085;-72
2023/07/07 08:27:03;;;;;;;5.13;2.57;;;23.50;56.70;;;;;;4999599;28;20498;-72
2023/07/07 08:29:28;;;;;;;3.93;2.53;;;23.50;56.70;;;;;;4997602;28;20046;-72
2023/07/07 08:31:54;;;;;;;4.17;2.43;;;23.60;56.10;;;;;;4996493;28;20224;-71
2023/07/07 08:34:20;;;;;;;4.33;2.27;;;23.70;55.90;;;;;;4983456;28;20417;-72
2023/07/07 08:36:47;;;;;;;3.57;2.13;;;23.70;56.80;;;;;;4999726;28;20044;-72
2023/07/07 08:39:16;;;;;;;5.03;2.07;;;23.80;56.50;;;;;;4997640;28;20364;-72
2023/07/07 08:41:49;;;;;;;3.83;2.00;;;23.90;56.80;;;;;;4998514;28;20085;-72
2023/07/07 08:44:18;;;;;;;6.60;2.67;;;24.10;56.30;;;;;;5001569;28;20052;-72
2023/07/07 08:47:12;;;;;;;4.43;2.60;;;24.20;56.00;;;;;;5001976;28;20060;-72
2023/07/07 08:49:49;;;;;;;5.57;2.40;;;24.30;54.80;;;;;;4983597;28;20045;-72
2023/07/07 08:52:18;;;;;;;5.13;2.53;;;24.40;53.70;;;;;;4981321;28;20038;-72
2023/07/07 08:54:52;;;;;;;5.60;2.10;;;24.30;54.80;;;;;;4981560;28;20038;-72
2023/07/07 08:57:19;;;;;;;5.75;2.47;;;24.40;54.20;;;;;;4995060;28;20042;-72
2023/07/07 08:59:54;;;;;;;4.50;2.13;;;24.40;54.10;;;;;;5001380;28;20042;-72
2023/07/07 09:03:02;;;;;;;5.13;2.20;;;24.50;53.60;;;;;;5003662;28;20072;-72
2023/07/07 09:05:41;;;;;;;4.97;2.00;;;24.50;53.50;;;;;;5001607;28;20124;-72
2023/07/07 09:08:19;;;;;;;5.00;2.33;;;24.60;53.70;;;;;;4999585;28;20054;-72
2023/07/07 09:11:09;;;;;;;4.37;2.00;;;24.70;52.60;;;;;;4987787;28;20501;-72
2023/07/07 09:13:37;;;;;;;4.13;1.90;;;24.80;52.90;;;;;;4996933;28;20034;-72
2023/07/07 09:16:22;;;;;;;5.37;2.00;;;24.80;53.30;;;;;;5004982;28;20162;-72
2023/07/07 09:18:51;;;;;;;3.90;1.97;;;24.90;52.40;;;;;;5009045;28;20037;-72
2023/07/07 09:21:28;;;;;;;6.27;2.30;;;25.00;51.70;;;;;;4990181;28;20046;-72
2023/07/07 09:23:58;;;;;;;5.17;1.67;;;25.10;49.30;;;;;;4997135;28;20042;-72
2023/07/07 09:26:31;;;;;;;3.87;1.73;;;25.20;48.90;;;;;;5004993;28;20038;-72
2023/07/07 09:28:58;;;;;;;5.40;2.10;;;25.20;47.60;;;;;;4992075;28;20049;-72
2023/07/07 09:31:37;;;;;;;4.80;1.93;;;25.30;49.00;;;;;;5012513;28;20029;-72
2023/07/07 09:34:04;;;;;;;3.97;1.73;;;25.30;46.80;;;;;;4994579;28;20037;-73
2023/07/07 09:36:50;;;;;;;4.53;1.53;;;25.40;47.20;;;;;;5007323;28;20489;-72
2023/07/07 09:39:18;;;;;;;4.07;1.97;;;25.50;47.00;;;;;;5003717;28;20064;-72
2023/07/07 09:41:56;;;;;;;3.80;1.77;;;25.50;46.20;;;;;;4992790;28;20050;-72
2023/07/07 09:44:47;;;;;;;3.37;2.00;;;25.50;46.30;;;;;;4989600;28;20833;-72
2023/07/07 09:47:45;;;;;;;4.13;1.70;;;25.60;47.00;;;;;;4993883;28;20049;-72
2023/07/07 09:50:17;;;;;;;2.90;1.97;;;25.70;46.20;;;;;;4994107;28;20073;-72
2023/07/07 09:52:48;;;;;;;3.47;1.73;;;25.80;45.50;;;;;;4989736;28;20045;-72
2023/07/07 09:55:23;;;;;;;3.53;1.53;;;25.80;45.90;;;;;;5009315;28;20533;-72
2023/07/07 09:58:14;;;;;;;3.20;1.90;;;25.90;44.10;;;;;;5006476;28;20052;-71
2023/07/07 10:00:41;;;;;;;4.70;1.53;;;25.90;45.00;;;;;;5007334;28;20035;-72
2023/07/07 10:03:39;;;;;;;4.17;1.80;;;26.00;44.80;;;;;;5000595;28;20065;-72
2023/07/07 10:06:27;;;;;;;3.27;2.13;;;26.10;44.70;;;;;;4990305;28;20503;-72
2023/07/07 10:08:52;;;;;;;3.20;1.60;;;26.20;43.40;;;;;;4996723;28;20042;-71
2023/07/07 10:11:23;;;;;;;3.73;1.60;;;26.20;44.40;;;;;;5006960;28;20121;-71
2023/07/07 10:13:51;;;;;;;4.13;2.00;;;26.20;43.90;;;;;;4989361;28;20418;-71
2023/07/07 10:16:42;;;;;;;5.10;2.00;;;26.30;44.40;;;;;;4989236;28;20034;-71
2023/07/07 10:19:10;;;;;;;3.80;1.83;;;26.40;44.80;;;;;;5006900;28;20050;-71
2023/07/07 10:21:36;;;;;;;4.40;1.73;;;26.50;45.10;;;;;;5005644;28;20533;-72
2023/07/07 10:24:02;;;;;;;3.23;1.80;;;26.50;44.80;;;;;;5002788;28;20689;-72
2023/07/07 10:26:28;;;;;;;6.17;2.10;;;26.70;45.50;;;;;;5010851;28;20553;-72
2023/07/07 10:28:58;;;;;;;4.60;1.90;;;26.80;45.30;;;;;;4998544;28;20402;-72
2023/07/07 10:31:25;;;;;;;3.70;1.77;;;26.80;44.30;;;;;;5004555;28;20044;-72
2023/07/07 10:33:56;;;;;;;3.33;2.20;;;26.90;43.10;;;;;;5001875;28;20030;-72
2023/07/07 10:36:31;;;;;;;2.97;1.63;;;26.80;42.40;;;;;;5007487;28;20033;-72
2023/07/07 10:38:58;;;;;;;4.57;1.90;;;26.80;43.60;;;;;;4983064;28;20124;-71
2023/07/07 10:41:25;;;;;;;4.00;2.10;;;26.90;43.90;;;;;;5011978;28;20056;-71
2023/07/07 10:43:52;;;;;;;4.83;1.73;;;27.00;42.60;;;;;;5006926;28;20049;-71
2023/07/07 10:46:18;;;;;;;2.60;1.60;;;27.00;43.00;;;;;;5003605;28;20084;-71
2023/07/07 10:48:44;;;;;;;6.47;2.40;;;27.10;42.60;;;;;;5007788;28;20386;-72
2023/07/07 10:51:42;;;;;;;3.13;1.90;;;27.10;43.20;;;;;;5002773;28;20616;-72
2023/07/07 10:54:36;;;;;;;4.00;1.70;;;27.10;43.00;;;;;;5007968;28;20129;-71
2023/07/07 10:57:17;;;;;;;3.83;1.90;;;27.20;42.50;;;;;;4979356;28;20052;-72
2023/07/07 11:00:09;;;;;;;4.83;1.70;;;27.30;41.50;;;;;;5007548;28;20080;-71
2023/07/07 11:02:52;;;;;;;3.40;1.90;;;27.30;42.70;;;;;;4998940;28;20528;-71
2023/07/07 11:05:39;;;;;;;3.53;1.53;;;27.40;41.60;;;;;;4983816;28;20077;-71
2023/07/07 11:08:20;;;;;;;4.33;1.90;;;27.40;42.40;;;;;;5004250;28;20084;-71
2023/07/07 11:10:51;;;;;;;4.87;1.80;;;27.50;42.90;;;;;;5005252;28;20516;-71
2023/07/07 11:13:26;;;;;;;3.47;1.77;;;27.50;42.40;;;;;;5006674;28;20367;-71
2023/07/07 11:16:01;;;;;;;;;;;27.50;41.30;;;;;;5006057;28;20528;-72
2023/07/07 11:19:21;;;;;;;5.55;1.90;;;27.50;43.20;;;;;;4988122;28;19968;-72
2023/07/07 11:21:55;;;;;;;5.37;2.87;;;27.60;40.90;;;;;;4972461;28;20046;-72
2023/07/07 11:24:25;;;;;;;;;;;27.60;40.80;;;;;;4988078;28;20042;-72
2023/07/07 11:27:04;;;;;;;3.43;2.10;;;27.60;42.50;;;;;;5005033;28;20266;-72
2023/07/07 11:30:08;;;;;;;5.37;1.83;;;27.70;42.30;;;;;;5004085;28;20042;-72
2023/07/07 11:32:53;;;;;;;3.37;1.67;;;27.70;43.10;;;;;;5006264;28;20195;-72
2023/07/07 11:35:38;;;;;;;3.03;1.60;;;27.70;42.30;;;;;;5003233;28;20053;-72
2023/07/07 11:38:23;;;;;;;3.45;1.52;;;27.70;41.80;;;;;;4998892;28;20065;-72
2023/07/07 11:41:02;;;;;;;4.20;2.00;;;27.70;41.70;;;;;;5001977;28;20610;-73
2023/07/07 11:43:48;;;;;;;2.43;1.60;;;27.70;42.20;;;;;;5004764;28;20058;-72
2023/07/07 11:46:20;;;;;;;3.70;2.10;;;27.70;42.00;;;;;;5003242;28;20057;-72
2023/07/07 11:49:19;;;;;;;4.50;2.30;;;27.70;42.50;;;;;;4995132;28;20042;-72
2023/07/07 11:52:15;;;;;;;4.40;1.80;;;27.80;41.00;;;;;;4992801;28;20134;-73
2023/07/07 11:54:59;;;;;;;4.10;2.07;;;27.80;41.90;;;;;;5009059;28;20125;-72
2023/07/07 11:57:40;;;;;;;5.70;1.90;;;27.90;41.60;;;;;;4994530;28;20530;-72
2023/07/07 12:00:42;;;;;;;3.60;1.77;;;28.00;42.70;;;;;;5006232;28;20053;-73
2023/07/07 12:03:27;;;;;;;5.17;2.10;;;28.10;40.50;;;;;;5005888;28;20080;-72
2023/07/07 12:05:55;;;;;;;3.40;1.92;;;28.10;41.40;;;;;;4996433;28;20053;-72
2023/07/07 12:08:29;;;;;;;6.00;1.93;;;28.20;41.00;;;;;;5008459;28;20085;-72
2023/07/07 12:10:57;;;;;;;4.65;2.00;;;28.20;41.60;;;;;;5006246;28;20045;-72
2023/07/07 12:13:28;;;;;;;5.43;2.10;;;28.30;42.20;;;;;;5010737;28;20045;-72
2023/07/07 12:16:15;;;;;;;6.23;2.30;;;28.30;42.00;;;;;;5008201;28;20038;-73
2023/07/07 12:18:46;;;;;;;3.30;2.30;;;28.40;42.00;;;;;;5010605;28;20030;-72
2023/07/07 12:21:17;;;;;;;4.03;1.83;;;28.50;41.40;;;;;;5011245;28;20038;-72
2023/07/07 12:23:59;;;;;;;4.27;2.07;;;28.60;41.00;;;;;;5010102;28;20058;-72
2023/07/07 12:26:39;;;;;;;3.93;2.20;;;28.50;40.70;;;;;;4995000;28;20042;-72
2023/07/07 12:29:05;;;;;;;4.93;2.10;;;28.40;39.70;;;;;;5001071;28;20173;-72
2023/07/07 12:31:32;;;;;;;4.27;1.87;;;28.20;41.50;;;;;;5010540;28;20044;-72
2023/07/07 12:34:18;;;;;;;3.77;1.90;;;28.20;40.70;;;;;;5010807;28;20042;-72
2023/07/07 12:36:46;;;;;;;3.60;1.67;;;28.20;39.40;;;;;;5011445;28;20046;-72
2023/07/07 12:39:12;;;;;;;5.37;1.90;;;28.20;41.10;;;;;;5012714;28;20580;-72
2023/07/07 12:41:38;;;;;;;4.03;2.13;;;28.30;40.60;;;;;;4995818;28;20265;-72
2023/07/07 12:44:05;;;;;;;4.13;2.17;;;28.40;41.50;;;;;;5007003;28;20077;-72
2023/07/07 12:46:37;;;;;;;6.07;2.27;;;28.50;40.40;;;;;;5012628;28;20049;-72
2023/07/07 12:49:16;;;;;;;4.03;1.93;;;28.50;41.10;;;;;;5012075;28;20033;-72
2023/07/07 12:51:42;;;;;;;4.70;2.13;;;28.60;39.80;;;;;;5004399;28;20116;-72
2023/07/07 12:54:29;;;;;;;4.30;1.93;;;28.60;39.90;;;;;;4987822;28;20038;-73
2023/07/07 12:57:18;;;;;;;3.60;2.10;;;28.70;40.20;;;;;;5008050;28;20694;-73
2023/07/07 12:59:45;;;;;;;4.33;2.53;;;28.80;40.50;;;;;;5002082;28;20121;-72
2023/07/07 13:02:27;;;;;;;4.73;2.50;;;28.80;40.80;;;;;;5005640;28;20518;-72
2023/07/07 13:05:00;;;;;;;4.50;2.40;;;28.80;38.70;;;;;;5006119;28;20344;-71